Pagina principală
METAR-TAF:

METAR-TAF

Aeroporturi :

Shell Mera, Ecuador

Latitudine: 01-30-19S, longitudine: 078-03-46W, elevație: 1056 m

Observații meteo curente

Raportul a fost făcut în urmă cu 1 oră și 1 de minute, la 16:00 UTC
Vânt 4 kt de la Nord
Temperatură 21°C
Umiditate 94%
Presiune 1018 hPa
Vizibilitate de 10 km sau mai mult
Nori fragmentați la o înălțime de 2600 picior
Total acoperit la o înălțime de 10000 picior

METAR: SESM 241600Z 36004KT 9999 BKN026 OVC100 21/20 Q1018 RMK A3008

Ora: 12:01 (17:01 UTC)


TAF: lipsă

Observații și prognoze meteo pentru peste 4.000 de aeroporturi (rapoarte METAR și TAF).

Stațiile disponibile sunt reprezentate pe hartă prin puncte galbene și roșii.

Țineți indicatorul mouse-ului pe punctul dorit pentru a vedea denumirea stației.

Apoi, faceți clic pentru a vedea observațiile și prognozele meteorologice.

Pentru a schimba harta: Pentru mărire, faceți clic pe butoanele verzi cu cruce neagră; pentru micșorare, pe butonul verde cu o liniuță; pentru hărți învecinate, pe săgețile verzi.


METAR-TAF: